Time;durP1;ratioP1;P1;durP2;ratioP2;P2;SDS_P1;SDS_P2;PMS_P1;PMS_P2;Temp;Humidity;BMP_temperature;BMP_pressure;BME280_temperature;BME280_humidity;BME280_pressure;Samples;Min_cycle;Max_cycle;Signal;HPM_P1;HPM_P2
2022/11/02 00:01:27;;;;;;;73.13;35.38;;;9.00;99.90;;;;;;5092558;28;20051;-79
2022/11/02 00:03:53;;;;;;;65.13;33.10;;;9.00;99.90;;;;;;5092135;28;20133;-77
2022/11/02 00:06:18;;;;;;;67.00;34.00;;;9.00;99.90;;;;;;5092341;28;20020;-79
2022/11/02 00:08:44;;;;;;;71.10;35.60;;;9.00;99.90;;;;;;5093247;28;20115;-79
2022/11/02 00:11:10;;;;;;;70.00;34.60;;;9.00;99.90;;;;;;5092070;28;20019;-77
2022/11/02 00:13:35;;;;;;;65.75;33.45;;;9.10;99.90;;;;;;5093640;28;20060;-79
2022/11/02 00:16:07;;;;;;;66.00;33.72;;;9.00;99.90;;;;;;5093436;28;20016;-78
2022/11/02 00:18:33;;;;;;;75.13;36.17;;;9.00;99.90;;;;;;5092306;28;20027;-78
2022/11/02 00:21:00;;;;;;;75.25;35.95;;;9.00;99.90;;;;;;5108953;28;20042;-77
2022/11/02 00:23:26;;;;;;;67.90;34.28;;;8.90;99.90;;;;;;5092134;28;20020;-79
2022/11/02 00:25:53;;;;;;;76.43;35.53;;;8.90;99.90;;;;;;5093189;28;20024;-79
2022/11/02 00:28:18;;;;;;;64.45;32.50;;;8.90;99.90;;;;;;5100143;28;20038;-77
2022/11/02 00:30:44;;;;;;;66.60;34.22;;;8.90;99.90;;;;;;5112369;28;20114;-78
2022/11/02 00:33:10;;;;;;;68.10;34.45;;;8.90;99.90;;;;;;5113703;28;20078;-78
2022/11/02 00:35:36;;;;;;;68.63;34.88;;;8.80;99.90;;;;;;5112337;28;20027;-77
2022/11/02 00:38:02;;;;;;;76.88;35.97;;;8.80;99.90;;;;;;5112344;28;20376;-77
2022/11/02 00:40:27;;;;;;;74.18;34.25;;;8.80;99.90;;;;;;5113329;28;20052;-77
2022/11/02 00:42:53;;;;;;;73.55;35.30;;;8.80;99.90;;;;;;5113509;28;20032;-79
2022/11/02 00:45:19;;;;;;;64.10;31.65;;;8.80;99.90;;;;;;5112222;28;20496;-80
2022/11/02 00:47:44;;;;;;;72.25;35.22;;;8.80;99.90;;;;;;5108909;28;20020;-79
2022/11/02 00:50:10;;;;;;;78.18;37.05;;;8.80;99.90;;;;;;5091699;28;20031;-78
2022/11/02 00:52:39;;;;;;;74.28;34.85;;;8.80;99.90;;;;;;5091711;28;20484;-79
2022/11/02 00:55:05;;;;;;;69.53;31.83;;;8.80;99.90;;;;;;5091747;28;20517;-77
2022/11/02 00:57:31;;;;;;;71.85;33.67;;;8.80;99.90;;;;;;5087911;28;20104;-77
2022/11/02 00:59:56;;;;;;;68.65;32.45;;;8.80;99.90;;;;;;5071664;28;20070;-77
2022/11/02 01:02:22;;;;;;;68.03;33.80;;;8.80;99.90;;;;;;5071352;28;20062;-78
2022/11/02 01:04:47;;;;;;;71.22;33.45;;;8.80;99.90;;;;;;5072800;28;20096;-79
2022/11/02 01:07:13;;;;;;;75.15;34.97;;;8.80;99.90;;;;;;5071496;28;20423;-78
2022/11/02 01:09:39;;;;;;;71.13;35.13;;;8.80;99.90;;;;;;5071323;28;20120;-79
2022/11/02 01:12:05;;;;;;;65.28;32.47;;;8.80;99.90;;;;;;5072779;28;20470;-79
2022/11/02 01:14:31;;;;;;;68.05;31.92;;;8.80;99.90;;;;;;5071329;28;20513;-79
2022/11/02 01:16:57;;;;;;;67.43;32.97;;;8.80;99.90;;;;;;5072575;28;20048;-78
2022/11/02 01:19:23;;;;;;;71.70;32.75;;;8.80;99.90;;;;;;5072650;28;20092;-77
2022/11/02 01:21:49;;;;;;;68.82;34.15;;;8.80;99.90;;;;;;5073055;28;20023;-77
2022/11/02 01:24:15;;;;;;;70.57;34.28;;;8.80;99.90;;;;;;5076170;28;20404;-79
2022/11/02 01:26:40;;;;;;;68.40;32.90;;;8.80;99.90;;;;;;5074950;28;20039;-77
2022/11/02 01:29:06;;;;;;;62.33;32.25;;;8.80;99.90;;;;;;5105402;28;20063;-77
2022/11/02 01:31:31;;;;;;;65.10;32.10;;;8.80;99.90;;;;;;5116917;28;20833;-78
2022/11/02 01:33:57;;;;;;;76.88;34.03;;;8.80;99.90;;;;;;5115372;28;20481;-78
2022/11/02 01:36:23;;;;;;;70.10;35.83;;;8.80;99.90;;;;;;5115452;28;20464;-79
2022/11/02 01:38:49;;;;;;;61.10;33.17;;;8.80;99.90;;;;;;5132517;27;20023;-79
2022/11/02 01:41:16;;;;;;;67.57;34.25;;;8.80;99.90;;;;;;5115266;28;20039;-77
2022/11/02 01:43:44;;;;;;;72.63;34.45;;;8.80;99.90;;;;;;5116542;28;20019;-79
2022/11/02 01:46:09;;;;;;;69.72;33.70;;;8.80;99.90;;;;;;5115355;28;20064;-77
2022/11/02 01:48:44;;;;;;;73.88;34.90;;;8.80;99.90;;;;;;5103241;28;20119;-78
2022/11/02 01:51:18;;;;;;;77.43;37.80;;;8.80;99.90;;;;;;5094802;28;20024;-80
2022/11/02 01:53:46;;;;;;;79.03;34.42;;;8.80;99.90;;;;;;5075699;28;20089;-79
2022/11/02 01:56:16;;;;;;;69.35;31.42;;;8.80;99.90;;;;;;5074500;28;20031;-77
2022/11/02 01:58:45;;;;;;;73.75;33.45;;;8.80;99.90;;;;;;5074122;28;20475;-79
2022/11/02 02:01:11;;;;;;;85.10;39.28;;;8.80;99.90;;;;;;5075607;28;20055;-77
2022/11/02 02:03:37;;;;;;;75.32;34.90;;;8.80;99.90;;;;;;5075438;28;20058;-77
2022/11/02 02:06:10;;;;;;;69.05;33.10;;;8.80;99.90;;;;;;5074313;28;20033;-77
2022/11/02 02:08:40;;;;;;;64.93;31.60;;;8.80;99.90;;;;;;5074064;28;20036;-78
2022/11/02 02:11:38;;;;;;;63.53;30.73;;;8.80;99.90;;;;;;5074273;28;20086;-78
2022/11/02 02:14:09;;;;;;;57.85;29.17;;;8.80;99.90;;;;;;5074098;28;20028;-79
2022/11/02 02:16:52;;;;;;;65.88;32.50;;;8.80;99.90;;;;;;5075425;28;20029;-77
2022/11/02 02:19:39;;;;;;;73.57;32.55;;;8.80;99.90;;;;;;5095552;28;20024;-79
2022/11/02 02:22:21;;;;;;;64.95;32.13;;;8.80;99.90;;;;;;5094180;28;20236;-79
2022/11/02 02:25:09;;;;;;;66.35;32.15;;;8.80;99.90;;;;;;5094150;28;20069;-79
2022/11/02 02:27:55;;;;;;;66.45;31.08;;;8.70;99.90;;;;;;5096698;28;20040;-77
2022/11/02 02:30:22;;;;;;;58.30;30.05;;;8.80;99.90;;;;;;5115869;28;20107;-77
2022/11/02 02:32:49;;;;;;;71.05;32.45;;;8.70;99.90;;;;;;5115434;28;20445;-77
2022/11/02 02:35:36;;;;;;;79.55;33.17;;;8.70;99.90;;;;;;5113118;28;20063;-77
2022/11/02 02:38:07;;;;;;;72.18;33.88;;;8.70;99.90;;;;;;5115631;28;20047;-77
2022/11/02 02:40:34;;;;;;;65.63;32.83;;;8.70;99.90;;;;;;5113565;28;20089;-77
2022/11/02 02:43:07;;;;;;;69.28;32.53;;;8.70;99.90;;;;;;5093658;28;20081;-77
2022/11/02 02:45:49;;;;;;;77.63;33.75;;;8.70;99.90;;;;;;5095130;28;20028;-77
2022/11/02 02:48:18;;;;;;;67.03;31.47;;;8.70;99.90;;;;;;5093903;28;20452;-77
2022/11/02 02:50:54;;;;;;;56.75;29.10;;;8.60;99.90;;;;;;5093726;28;20076;-78
2022/11/02 02:53:23;;;;;;;58.65;28.30;;;8.70;99.90;;;;;;5093526;28;20386;-79
2022/11/02 02:55:50;;;;;;;60.50;30.50;;;8.60;99.90;;;;;;5093514;28;20030;-80
2022/11/02 02:58:25;;;;;;;47.83;26.35;;;8.60;99.90;;;;;;5094594;28;20072;-78
2022/11/02 03:00:52;;;;;;;53.75;26.75;;;8.60;99.90;;;;;;5095786;28;20080;-77
2022/11/02 03:03:24;;;;;;;50.08;26.08;;;8.60;99.90;;;;;;5113644;28;20020;-78
2022/11/02 03:06:07;;;;;;;46.45;25.83;;;8.60;99.90;;;;;;5114992;28;20022;-77
2022/11/02 03:08:36;;;;;;;43.28;22.98;;;8.60;99.90;;;;;;5113622;28;20031;-79
2022/11/02 03:11:15;;;;;;;45.28;26.08;;;8.50;99.90;;;;;;5130764;27;20019;-79
2022/11/02 03:14:07;;;;;;;38.83;22.45;;;8.50;99.90;;;;;;5113587;28;20469;-78
2022/11/02 03:17:05;;;;;;;40.35;23.63;;;8.50;99.90;;;;;;5113652;28;20027;-78
2022/11/02 03:19:58;;;;;;;48.30;24.50;;;8.40;99.90;;;;;;5091204;28;20096;-80
2022/11/02 03:22:27;;;;;;;51.35;26.27;;;8.50;99.90;;;;;;5107459;28;20035;-77
2022/11/02 03:25:20;;;;;;;52.33;27.02;;;8.40;99.90;;;;;;5092470;28;20031;-79
2022/11/02 03:27:53;;;;;;;47.92;25.98;;;8.40;99.90;;;;;;5094201;28;20023;-77
2022/11/02 03:30:22;;;;;;;55.03;28.35;;;8.40;99.90;;;;;;5092878;28;20039;-79
2022/11/02 03:32:51;;;;;;;64.18;29.45;;;8.40;99.90;;;;;;5092984;28;20024;-79
2022/11/02 03:35:24;;;;;;;63.78;31.92;;;8.40;99.90;;;;;;5093877;28;20030;-77
2022/11/02 03:37:59;;;;;;;;;;;8.40;99.90;;;;;;5093318;28;20020;-79
2022/11/02 03:40:32;;;;;;;65.50;31.08;;;8.40;99.90;;;;;;5092470;28;19927;-77
2022/11/02 03:42:59;;;;;;;60.03;29.65;;;8.40;99.90;;;;;;5100803;28;20376;-77
2022/11/02 03:45:30;;;;;;;56.80;29.95;;;8.30;99.90;;;;;;5113849;28;20411;-79
2022/11/02 03:48:02;;;;;;;63.15;29.63;;;8.30;99.90;;;;;;5105839;28;20024;-77
2022/11/02 03:50:28;;;;;;;70.13;31.00;;;8.40;99.90;;;;;;5093603;28;20393;-80
2022/11/02 03:53:11;;;;;;;60.85;28.05;;;8.30;99.90;;;;;;5093867;28;20027;-79
2022/11/02 03:55:41;;;;;;;66.32;30.95;;;8.40;99.90;;;;;;5093722;28;20020;-79
2022/11/02 03:58:10;;;;;;;58.83;28.52;;;8.30;99.90;;;;;;5093989;28;20496;-79
2022/11/02 04:00:43;;;;;;;62.80;27.40;;;8.40;99.90;;;;;;5093575;28;20016;-79
2022/11/02 04:03:10;;;;;;;75.63;33.08;;;8.30;99.90;;;;;;5092221;28;20020;-77
2022/11/02 04:05:36;;;;;;;70.13;31.15;;;8.30;99.90;;;;;;5092156;28;20169;-78
2022/11/02 04:08:21;;;;;;;78.38;34.28;;;8.30;99.90;;;;;;5093491;28;20489;-79
2022/11/02 04:16:20;;;;;;;49.58;25.05;;;8.30;99.90;;;;;;5093287;28;20075;-77
2022/11/02 04:21:30;;;;;;;89.35;31.20;;;8.20;99.90;;;;;;5093831;28;20062;-77
2022/11/02 04:26:40;;;;;;;72.63;30.25;;;8.20;99.90;;;;;;5093833;28;20039;-77
2022/11/02 04:29:05;;;;;;;67.90;29.60;;;8.20;99.90;;;;;;5109450;28;20035;-79
2022/11/02 04:31:31;;;;;;;63.92;29.48;;;8.20;99.90;;;;;;5113624;28;20483;-78
2022/11/02 04:33:58;;;;;;;134.35;38.78;;;8.20;99.90;;;;;;5129594;28;20023;-79
2022/11/02 04:36:25;;;;;;;79.03;32.28;;;8.20;99.90;;;;;;5113459;28;20094;-79
2022/11/02 04:38:50;;;;;;;84.93;32.17;;;8.20;99.90;;;;;;5113573;28;20028;-78
2022/11/02 04:44:14;;;;;;;120.32;40.42;;;8.20;99.90;;;;;;5104631;28;20080;-78
2022/11/02 04:46:42;;;;;;;120.00;38.80;;;8.20;99.90;;;;;;5113523;28;20028;-79
2022/11/02 04:49:08;;;;;;;117.25;40.15;;;8.30;99.90;;;;;;5094792;28;20077;-79
2022/11/02 04:51:35;;;;;;;105.63;36.92;;;8.30;99.90;;;;;;5091587;28;20040;-79
2022/11/02 04:54:01;;;;;;;128.40;41.22;;;8.30;99.90;;;;;;5091834;28;20539;-77
2022/11/02 04:56:28;;;;;;;108.97;39.47;;;8.40;99.90;;;;;;5092875;28;20032;-77
2022/11/02 04:58:56;;;;;;;104.78;38.92;;;8.40;99.90;;;;;;5096856;28;20106;-79
2022/11/02 05:01:24;;;;;;;110.82;40.50;;;8.40;99.90;;;;;;5096906;28;20073;-78
2022/11/02 05:03:51;;;;;;;115.72;40.88;;;8.40;99.90;;;;;;5095941;28;20028;-79
2022/11/02 05:06:18;;;;;;;109.30;42.72;;;8.40;99.90;;;;;;5096962;28;20111;-79
2022/11/02 05:08:44;;;;;;;119.30;42.05;;;8.50;99.90;;;;;;5095671;28;20509;-79
2022/11/02 05:11:11;;;;;;;115.45;40.35;;;8.50;99.90;;;;;;5095275;28;20048;-78
2022/11/02 05:13:37;;;;;;;99.57;37.78;;;8.50;99.90;;;;;;5095227;28;20039;-78
2022/11/02 05:16:04;;;;;;;104.07;39.25;;;8.50;99.90;;;;;;5095267;28;20474;-79
2022/11/02 05:18:30;;;;;;;138.95;43.33;;;8.50;99.90;;;;;;5096692;28;20016;-79
2022/11/02 05:20:58;;;;;;;113.07;42.55;;;8.50;99.90;;;;;;5095320;28;20520;-77
2022/11/02 05:23:24;;;;;;;236.80;54.85;;;8.50;99.90;;;;;;5095308;28;20035;-80
2022/11/02 05:25:58;;;;;;;196.48;43.10;;;8.50;99.90;;;;;;5096569;28;20047;-80
2022/11/02 05:28:25;;;;;;;142.93;43.92;;;8.50;99.90;;;;;;5105642;28;20395;-77
2022/11/02 05:30:51;;;;;;;143.23;40.97;;;8.40;99.90;;;;;;5115464;28;20031;-80
2022/11/02 05:33:17;;;;;;;226.60;50.17;;;8.40;99.90;;;;;;5115873;28;20028;-78
2022/11/02 05:35:43;;;;;;;139.40;41.10;;;8.40;99.90;;;;;;5115501;28;20012;-78
2022/11/02 05:38:08;;;;;;;136.75;45.38;;;8.40;99.90;;;;;;5115537;28;20016;-79
2022/11/02 05:40:36;;;;;;;265.95;52.78;;;8.40;99.90;;;;;;5132224;27;20054;-78
2022/11/02 05:43:03;;;;;;;287.50;53.17;;;8.40;99.90;;;;;;5116590;28;20012;-77
2022/11/02 05:45:29;;;;;;;298.83;57.53;;;8.30;99.90;;;;;;5115270;28;20028;-78
2022/11/02 05:47:54;;;;;;;424.05;70.65;;;8.40;99.90;;;;;;5098794;28;20411;-78
2022/11/02 05:50:20;;;;;;;260.80;55.83;;;8.30;99.90;;;;;;5095766;28;20036;-77
2022/11/02 05:52:46;;;;;;;204.35;48.33;;;8.30;99.90;;;;;;5094730;28;20020;-77
2022/11/02 05:55:12;;;;;;;144.63;42.47;;;8.30;99.90;;;;;;5100657;28;20031;-79
2022/11/02 05:57:38;;;;;;;114.25;39.83;;;8.30;99.90;;;;;;5115170;28;20047;-79
2022/11/02 06:00:05;;;;;;;105.65;39.55;;;8.30;99.90;;;;;;5114894;28;20077;-77
2022/11/02 06:02:33;;;;;;;144.88;44.42;;;8.30;99.90;;;;;;5097029;28;20028;-77
2022/11/02 06:04:58;;;;;;;191.48;46.63;;;8.30;99.90;;;;;;5094568;28;20049;-77
2022/11/02 06:07:24;;;;;;;269.35;51.22;;;8.40;99.90;;;;;;5095217;28;20110;-78
2022/11/02 06:09:50;;;;;;;189.50;41.53;;;8.40;99.90;;;;;;5094147;28;20027;-79
2022/11/02 06:12:16;;;;;;;188.07;48.83;;;8.40;99.90;;;;;;5094575;28;20103;-79
2022/11/02 06:14:41;;;;;;;140.48;42.03;;;8.40;99.90;;;;;;5094393;28;20401;-77
2022/11/02 06:17:07;;;;;;;281.08;52.78;;;8.50;99.90;;;;;;5096755;28;20035;-77
2022/11/02 06:19:32;;;;;;;152.98;40.22;;;8.50;99.90;;;;;;5092050;28;20032;-80
2022/11/02 06:21:58;;;;;;;128.40;40.63;;;8.50;99.90;;;;;;5090854;28;20021;-78
2022/11/02 06:24:23;;;;;;;162.02;39.28;;;8.50;99.90;;;;;;5101945;28;20043;-80
2022/11/02 06:26:49;;;;;;;189.32;39.05;;;8.50;99.90;;;;;;5099897;28;20030;-78
2022/11/02 06:29:15;;;;;;;328.88;53.50;;;8.50;99.90;;;;;;5130481;27;20397;-77
2022/11/02 06:31:40;;;;;;;202.23;42.03;;;8.60;99.90;;;;;;5114135;28;20031;-77
2022/11/02 06:34:06;;;;;;;175.68;45.55;;;8.60;99.90;;;;;;5114229;28;20092;-77
2022/11/02 06:36:32;;;;;;;137.20;43.60;;;8.60;99.90;;;;;;5103587;28;20027;-78
2022/11/02 06:38:57;;;;;;;329.75;57.15;;;8.60;99.90;;;;;;5129846;27;20671;-78
2022/11/02 06:41:23;;;;;;;358.48;60.28;;;8.70;99.90;;;;;;5101565;28;20847;-78
2022/11/02 06:43:48;;;;;;;187.55;40.45;;;8.70;99.90;;;;;;5091578;28;20371;-78
2022/11/02 06:46:14;;;;;;;223.90;45.65;;;8.70;99.90;;;;;;5091976;28;20367;-78
2022/11/02 06:48:40;;;;;;;178.50;42.42;;;8.70;99.90;;;;;;5091907;28;20486;-80
2022/11/02 06:51:06;;;;;;;183.48;41.08;;;8.70;99.90;;;;;;5092716;28;20024;-78
2022/11/02 06:53:32;;;;;;;366.20;55.53;;;8.70;99.90;;;;;;5091493;28;20016;-79
2022/11/02 06:55:58;;;;;;;197.15;44.80;;;8.70;99.90;;;;;;5071036;28;20119;-78
2022/11/02 06:58:25;;;;;;;470.80;73.25;;;8.70;99.90;;;;;;5071765;28;20033;-78
2022/11/02 07:00:56;;;;;;;333.83;57.35;;;8.70;99.90;;;;;;5072468;28;20020;-78
2022/11/02 07:03:22;;;;;;;107.85;32.45;;;8.70;99.90;;;;;;5062346;28;20017;-78
2022/11/02 07:05:52;;;;;;;155.88;37.67;;;8.80;99.90;;;;;;5079116;28;20595;-78
2022/11/02 07:08:18;;;;;;;276.33;45.50;;;8.80;99.90;;;;;;5071328;28;20020;-78
2022/11/02 07:10:44;;;;;;;267.85;50.88;;;8.70;99.90;;;;;;5062468;28;20032;-78
2022/11/02 07:13:10;;;;;;;253.55;47.38;;;8.80;99.90;;;;;;5079927;28;20074;-78
2022/11/02 07:15:36;;;;;;;149.48;43.95;;;8.80;99.90;;;;;;5066152;28;20016;-77
2022/11/02 07:18:02;;;;;;;173.52;46.83;;;8.80;99.90;;;;;;5072076;28;20017;-78
2022/11/02 07:20:29;;;;;;;234.32;48.63;;;8.90;99.90;;;;;;5071282;28;20032;-78
2022/11/02 07:23:22;;;;;;;252.13;49.65;;;9.00;99.90;;;;;;5073213;28;20469;-78
2022/11/02 07:25:48;;;;;;;125.65;32.28;;;9.00;99.90;;;;;;5073670;28;20473;-78
2022/11/02 07:28:13;;;;;;;91.82;27.58;;;9.00;99.90;;;;;;5078359;28;20080;-78
2022/11/02 07:30:39;;;;;;;131.13;33.65;;;9.00;99.90;;;;;;5072683;28;20052;-78
2022/11/02 07:33:04;;;;;;;183.55;37.00;;;9.00;99.90;;;;;;5072561;28;20032;-79
2022/11/02 07:35:30;;;;;;;177.63;36.25;;;9.00;99.90;;;;;;5073834;28;20029;-78
2022/11/02 07:38:00;;;;;;;174.57;33.83;;;9.00;99.90;;;;;;5073822;28;20066;-79
2022/11/02 07:40:27;;;;;;;74.65;29.02;;;9.00;99.90;;;;;;5073682;28;20123;-78
2022/11/02 07:42:52;;;;;;;105.57;33.75;;;9.10;99.90;;;;;;5073675;28;20025;-78
2022/11/02 07:45:22;;;;;;;161.55;37.22;;;9.10;99.90;;;;;;5073720;28;20055;-78
2022/11/02 07:47:48;;;;;;;188.20;40.85;;;9.20;99.90;;;;;;5072067;28;20397;-79
2022/11/02 07:50:20;;;;;;;143.77;34.80;;;9.20;99.90;;;;;;5073439;28;20036;-78
2022/11/02 07:52:50;;;;;;;139.05;33.05;;;9.20;99.90;;;;;;5073643;28;20060;-78
2022/11/02 07:55:19;;;;;;;120.45;31.08;;;9.20;99.90;;;;;;5073629;28;20040;-78
2022/11/02 07:57:59;;;;;;;122.10;32.38;;;9.10;99.90;;;;;;5089115;28;20042;-78
2022/11/02 08:00:30;;;;;;;143.88;37.80;;;9.10;99.90;;;;;;5089404;28;20054;-78
2022/11/02 08:02:57;;;;;;;146.80;36.65;;;9.20;99.90;;;;;;5088997;28;20020;-79
2022/11/02 08:05:25;;;;;;;116.00;33.17;;;9.20;99.90;;;;;;5073614;28;20425;-78
2022/11/02 08:08:00;;;;;;;137.27;37.92;;;9.20;99.90;;;;;;5073416;28;20060;-79
2022/11/02 08:10:27;;;;;;;118.25;35.25;;;9.20;99.90;;;;;;5073506;28;20028;-77
2022/11/02 08:12:54;;;;;;;100.18;32.00;;;9.20;99.90;;;;;;5088791;28;20012;-78
2022/11/02 08:15:20;;;;;;;74.78;30.42;;;9.20;99.90;;;;;;5071854;28;20021;-78
2022/11/02 08:17:45;;;;;;;127.60;35.55;;;9.30;99.90;;;;;;5073169;28;20070;-78
2022/11/02 08:20:11;;;;;;;137.27;38.55;;;9.20;99.90;;;;;;5073202;28;20024;-78
2022/11/02 08:22:37;;;;;;;135.20;36.38;;;9.20;99.90;;;;;;5088815;28;20031;-79
2022/11/02 08:25:04;;;;;;;160.10;42.65;;;9.20;99.90;;;;;;5088846;28;20051;-78
2022/11/02 08:27:30;;;;;;;119.53;37.60;;;9.30;99.90;;;;;;5092904;28;20012;-79
2022/11/02 08:29:56;;;;;;;83.80;34.55;;;9.30;99.90;;;;;;5092023;28;20367;-78
2022/11/02 08:32:21;;;;;;;90.22;37.70;;;9.40;99.90;;;;;;5082189;28;20025;-78
2022/11/02 08:34:47;;;;;;;98.55;37.72;;;9.40;99.90;;;;;;5077222;28;20091;-78
2022/11/02 08:37:12;;;;;;;119.88;39.50;;;9.50;99.90;;;;;;5077210;28;20386;-77
2022/11/02 08:39:38;;;;;;;108.03;37.53;;;9.60;99.90;;;;;;5075715;28;20155;-78
2022/11/02 08:42:04;;;;;;;101.00;38.63;;;9.60;99.90;;;;;;5075931;28;20021;-78
2022/11/02 08:44:30;;;;;;;109.30;37.50;;;9.70;99.90;;;;;;5076959;28;20426;-75
2022/11/02 08:46:56;;;;;;;106.20;39.85;;;9.70;99.90;;;;;;5077277;28;20028;-76
2022/11/02 08:49:21;;;;;;;92.28;37.95;;;9.70;99.90;;;;;;5092495;28;20123;-75
2022/11/02 08:51:47;;;;;;;105.40;41.13;;;9.80;99.90;;;;;;5076748;28;20174;-75
2022/11/02 08:54:13;;;;;;;119.57;43.60;;;9.80;99.90;;;;;;5075502;28;20025;-75
2022/11/02 08:56:39;;;;;;;104.85;44.78;;;9.80;99.90;;;;;;5076674;28;20394;-75
2022/11/02 08:59:05;;;;;;;98.88;42.38;;;9.90;99.90;;;;;;5076808;28;20111;-76
2022/11/02 09:01:31;;;;;;;98.20;42.22;;;10.10;99.90;;;;;;5092574;28;20032;-76
2022/11/02 09:03:57;;;;;;;94.88;41.13;;;10.10;99.90;;;;;;5075117;28;20032;-75
2022/11/02 09:06:22;;;;;;;84.95;36.70;;;10.20;99.90;;;;;;5076726;28;20017;-76
2022/11/02 09:08:48;;;;;;;94.70;40.00;;;10.20;99.90;;;;;;5076501;28;20040;-75
2022/11/02 09:11:15;;;;;;;93.20;40.33;;;10.20;99.90;;;;;;5076740;28;20074;-76
2022/11/02 09:13:40;;;;;;;92.63;40.83;;;10.30;99.90;;;;;;5092209;28;20016;-75
2022/11/02 09:16:06;;;;;;;95.03;41.50;;;10.40;99.90;;;;;;5074872;28;20070;-75
2022/11/02 09:18:32;;;;;;;104.68;43.28;;;10.40;99.90;;;;;;5074537;28;20029;-76
2022/11/02 09:21:05;;;;;;;92.07;41.83;;;10.40;99.90;;;;;;5090188;28;20017;-75
2022/11/02 09:23:31;;;;;;;90.38;38.72;;;10.40;99.90;;;;;;5074645;28;20137;-75
2022/11/02 09:25:57;;;;;;;99.93;40.63;;;10.40;99.90;;;;;;5090144;28;20657;-76
2022/11/02 09:28:23;;;;;;;95.47;41.15;;;10.40;99.90;;;;;;5086210;28;20024;-76
2022/11/02 09:30:49;;;;;;;101.20;47.28;;;10.40;99.90;;;;;;5094011;28;20039;-75
2022/11/02 09:33:15;;;;;;;111.68;49.10;;;10.40;99.90;;;;;;5076375;28;20070;-76
2022/11/02 09:35:43;;;;;;;100.68;44.55;;;10.40;99.90;;;;;;5076286;28;20024;-75
2022/11/02 09:38:09;;;;;;;108.93;49.78;;;10.40;99.90;;;;;;5075156;28;20021;-75
2022/11/02 09:40:45;;;;;;;110.82;48.70;;;10.50;99.90;;;;;;5076114;28;20060;-75
2022/11/02 09:43:51;;;;;;;102.10;45.92;;;10.50;99.90;;;;;;5075592;28;20032;-75
2022/11/02 09:46:30;;;;;;;97.18;45.72;;;10.60;99.90;;;;;;5070250;28;20044;-76
2022/11/02 09:49:00;;;;;;;106.90;46.60;;;10.60;99.90;;;;;;5075785;28;20542;-75
2022/11/02 09:51:36;;;;;;;99.60;46.75;;;10.70;99.90;;;;;;5073759;28;20553;-76
2022/11/02 09:54:26;;;;;;;95.00;41.95;;;10.70;99.90;;;;;;5075480;28;20013;-75
2022/11/02 09:56:56;;;;;;;93.20;44.95;;;10.90;99.90;;;;;;5073526;28;20037;-75
2022/11/02 09:59:24;;;;;;;101.50;46.70;;;11.00;99.90;;;;;;5076036;28;20070;-75
2022/11/02 10:02:20;;;;;;;86.70;41.63;;;11.00;99.90;;;;;;5075953;28;20111;-75
2022/11/02 10:05:01;;;;;;;89.20;41.63;;;11.20;99.90;;;;;;5074407;28;20067;-75
2022/11/02 10:07:36;;;;;;;88.38;42.28;;;11.30;99.90;;;;;;5075714;28;20024;-75
2022/11/02 10:10:22;;;;;;;87.50;42.83;;;11.30;99.90;;;;;;5075597;28;20036;-76
2022/11/02 10:13:25;;;;;;;79.70;37.90;;;11.40;99.90;;;;;;5074521;28;20101;-76
2022/11/02 10:15:55;;;;;;;81.47;39.63;;;11.50;99.90;;;;;;5087915;28;20028;-75
2022/11/02 10:18:25;;;;;;;73.88;35.45;;;11.60;99.90;;;;;;5074257;28;20016;-76
2022/11/02 10:20:56;;;;;;;69.85;35.30;;;11.80;99.90;;;;;;5075352;28;20031;-75
2022/11/02 10:23:32;;;;;;;65.38;33.67;;;12.00;99.90;;;;;;5075503;28;20020;-75
2022/11/02 10:26:00;;;;;;;63.33;31.08;;;12.20;99.90;;;;;;5075266;28;20021;-75
2022/11/02 10:28:30;;;;;;;58.25;28.80;;;12.30;99.90;;;;;;5085997;28;20031;-76
2022/11/02 10:30:56;;;;;;;53.47;29.20;;;12.40;99.90;;;;;;5078315;28;20031;-75
2022/11/02 10:33:27;;;;;;;60.38;30.33;;;12.50;99.90;;;;;;5101737;28;20032;-76
2022/11/02 10:35:58;;;;;;;56.97;28.38;;;12.50;99.90;;;;;;5089884;28;20099;-76
2022/11/02 10:38:55;;;;;;;52.85;27.75;;;12.60;99.90;;;;;;5074724;28;20084;-76
2022/11/02 10:41:43;;;;;;;56.42;29.88;;;12.80;99.90;;;;;;5073127;28;20524;-76
2022/11/02 10:44:30;;;;;;;48.72;25.65;;;13.00;99.90;;;;;;5090401;28;20482;-75
2022/11/02 10:47:01;;;;;;;57.63;26.75;;;13.10;99.90;;;;;;5073530;28;20027;-76
2022/11/02 10:49:57;;;;;;;52.05;27.58;;;13.30;99.90;;;;;;5074576;28;20041;-77
2022/11/02 10:52:23;;;;;;;56.17;26.45;;;13.50;99.90;;;;;;5086909;28;20032;-75
2022/11/02 10:54:49;;;;;;;43.72;23.55;;;13.60;99.90;;;;;;5105411;28;20020;-76
2022/11/02 10:57:22;;;;;;;41.75;21.80;;;13.70;99.90;;;;;;5094305;28;20028;-77
2022/11/02 11:00:26;;;;;;;38.65;20.38;;;13.80;99.90;;;;;;5103223;28;20093;-77
2022/11/02 11:03:11;;;;;;;35.08;17.85;;;13.90;99.90;;;;;;5094274;28;20023;-76
2022/11/02 11:05:48;;;;;;;31.95;14.55;;;14.00;99.90;;;;;;5092694;28;20420;-76
2022/11/02 11:08:43;;;;;;;24.30;14.18;;;14.10;99.90;;;;;;5091198;28;20145;-77
2022/11/02 11:11:15;;;;;;;27.92;14.95;;;14.30;99.90;;;;;;5097035;28;20520;-77
2022/11/02 11:14:06;;;;;;;24.30;11.85;;;14.40;99.90;;;;;;5094036;28;20028;-77
2022/11/02 11:16:44;;;;;;;20.38;10.57;;;14.40;99.90;;;;;;5093900;28;20037;-77
2022/11/02 11:19:40;;;;;;;19.10;10.98;;;14.50;99.90;;;;;;5092412;28;20500;-78
2022/11/02 11:22:28;;;;;;;15.00;8.15;;;14.60;99.90;;;;;;5093442;28;20100;-77
2022/11/02 11:25:22;;;;;;;16.52;8.55;;;14.60;98.50;;;;;;5085888;28;20029;-76
2022/11/02 11:27:49;;;;;;;11.18;7.60;;;14.60;92.50;;;;;;5061883;28;20024;-77
2022/11/02 11:30:37;;;;;;;13.20;7.15;;;14.70;93.60;;;;;;5087219;28;20032;-78
2022/11/02 11:33:05;;;;;;;13.18;7.55;;;14.70;91.10;;;;;;5079645;28;20493;-77
2022/11/02 11:35:46;;;;;;;13.23;7.57;;;14.70;89.20;;;;;;5093256;28;20023;-78
2022/11/02 11:38:18;;;;;;;13.93;6.85;;;14.80;90.20;;;;;;5093971;28;20028;-79
2022/11/02 11:40:52;;;;;;;11.43;7.10;;;14.80;88.10;;;;;;5093364;28;20080;-76
2022/11/02 11:43:20;;;;;;;15.35;6.80;;;14.80;88.90;;;;;;5093439;28;20269;-78
2022/11/02 11:46:00;;;;;;;9.35;5.93;;;14.80;87.40;;;;;;5093618;28;20077;-77
2022/11/02 11:48:45;;;;;;;7.03;5.07;;;14.80;85.40;;;;;;5093220;28;20533;-77
2022/11/02 11:51:41;;;;;;;7.90;5.70;;;14.70;83.50;;;;;;5091586;28;20020;-77
2022/11/02 11:54:38;;;;;;;10.05;5.93;;;14.80;85.10;;;;;;5085982;28;22362;-78
2022/11/02 11:57:29;;;;;;;12.05;5.63;;;14.90;85.40;;;;;;5035195;28;20028;-76
2022/11/02 11:59:57;;;;;;;9.95;5.88;;;14.90;83.40;;;;;;5091026;28;20036;-78
2022/11/02 12:02:30;;;;;;;6.38;4.50;;;14.90;83.10;;;;;;5081799;28;20020;-79
2022/11/02 12:05:00;;;;;;;;;;;14.90;80.50;;;;;;5091525;28;20036;-79
2022/11/02 12:07:31;;;;;;;11.50;5.25;;;14.80;80.80;;;;;;5092985;28;19949;-78
2022/11/02 12:10:06;;;;;;;9.73;5.72;;;14.80;81.20;;;;;;5092779;28;20044;-78
2022/11/02 12:13:07;;;;;;;6.53;5.10;;;14.80;80.70;;;;;;5080990;28;20020;-76
2022/11/02 12:15:47;;;;;;;10.27;6.53;;;14.80;83.10;;;;;;5074020;28;20428;-78
2022/11/02 12:18:21;;;;;;;10.02;6.22;;;14.90;84.90;;;;;;5093138;28;20012;-78
2022/11/02 12:21:03;;;;;;;9.52;5.82;;;14.90;86.50;;;;;;5091382;28;20030;-77
2022/11/02 12:23:59;;;;;;;14.63;6.90;;;14.90;84.20;;;;;;5093493;28;20020;-79
2022/11/02 12:26:40;;;;;;;13.02;6.28;;;14.90;84.70;;;;;;5093124;28;20274;-76
2022/11/02 12:29:30;;;;;;;13.63;7.03;;;14.90;84.30;;;;;;5088268;28;20189;-77
2022/11/02 12:32:21;;;;;;;10.70;5.75;;;14.90;85.90;;;;;;5080957;28;20063;-77
2022/11/02 12:35:14;;;;;;;10.50;5.82;;;14.70;86.80;;;;;;5080541;28;20031;-77
2022/11/02 12:38:01;;;;;;;7.47;5.18;;;14.80;87.90;;;;;;5091526;28;20103;-76
2022/11/02 12:40:45;;;;;;;6.68;4.72;;;14.80;85.60;;;;;;5087518;28;20048;-78
2022/11/02 12:43:37;;;;;;;10.73;4.93;;;14.80;82.40;;;;;;5091619;28;20486;-78
2022/11/02 12:46:10;;;;;;;6.95;4.63;;;14.80;82.10;;;;;;5092845;28;20036;-76
2022/11/02 12:48:48;;;;;;;10.15;5.28;;;14.80;81.70;;;;;;5089543;28;20454;-78
2022/11/02 12:51:20;;;;;;;12.10;5.45;;;14.80;81.80;;;;;;5082590;28;20029;-76
2022/11/02 12:53:59;;;;;;;9.27;4.63;;;14.80;82.30;;;;;;5089558;28;20091;-78
2022/11/02 12:56:49;;;;;;;8.68;5.05;;;14.70;83.40;;;;;;5079483;28;20101;-78
2022/11/02 12:59:27;;;;;;;8.40;5.05;;;14.70;84.80;;;;;;5075895;28;20021;-77
2022/11/02 13:02:04;;;;;;;10.35;5.72;;;14.70;85.40;;;;;;5074490;28;20052;-77
2022/11/02 13:04:41;;;;;;;8.05;5.53;;;14.70;85.60;;;;;;5092582;28;20032;-78
2022/11/02 13:07:13;;;;;;;9.80;5.55;;;14.70;85.50;;;;;;5091550;28;20024;-76
2022/11/02 13:09:46;;;;;;;7.90;6.15;;;14.60;85.90;;;;;;5091488;28;20032;-78